Time;durP1;ratioP1;P1;durP2;ratioP2;P2;SDS_P1;SDS_P2;PMS_P1;PMS_P2;Temp;Humidity;BMP_temperature;BMP_pressure;BME280_temperature;BME280_humidity;BME280_pressure;Samples;Min_cycle;Max_cycle;Signal;HPM_P1;HPM_P2
2021/09/17 00:00:37;;;;;;;46.77;16.00;;;;;;;7.41;100.00;101321.16;1787730;80;20904;-83
2021/09/17 00:03:21;;;;;;;52.75;14.23;;;;;;;7.42;100.00;101317.95;1761849;80;20876;-83
2021/09/17 00:05:47;;;;;;;50.98;14.90;;;;;;;7.39;100.00;101313.03;1752621;81;21590;-84
2021/09/17 00:08:13;;;;;;;55.43;17.05;;;;;;;7.28;100.00;101311.88;1756665;81;21089;-81
2021/09/17 00:10:39;;;;;;;54.48;17.35;;;;;;;7.28;100.00;101311.88;1738328;80;20897;-82
2021/09/17 00:13:06;;;;;;;52.30;17.07;;;;;;;7.24;100.00;101314.72;1736406;82;21036;-81
2021/09/17 00:15:32;;;;;;;51.28;15.40;;;;;;;7.21;100.00;101319.17;1711843;82;21724;-82
2021/09/17 00:17:58;;;;;;;48.28;14.23;;;;;;;7.20;100.00;101318.86;1736627;82;20851;-82
2021/09/17 00:20:24;;;;;;;49.27;15.53;;;;;;;7.19;100.00;101321.25;1736492;82;21054;-82
2021/09/17 00:22:50;;;;;;;47.03;16.00;;;;;;;7.15;100.00;101317.38;1736437;82;21128;-82
2021/09/17 00:25:16;;;;;;;54.08;15.83;;;;;;;7.15;100.00;101316.85;1736486;82;21093;-82
2021/09/17 00:27:42;;;;;;;56.77;17.67;;;;;;;7.15;100.00;101323.55;1736319;82;21028;-82
2021/09/17 00:30:09;;;;;;;54.77;17.07;;;;;;;7.12;100.00;101325.83;1736404;82;21181;-81
2021/09/17 00:32:35;;;;;;;54.88;18.12;;;;;;;7.11;100.00;101325.02;1736451;82;21144;-82
2021/09/17 00:35:05;;;;;;;54.85;17.50;;;;;;;7.14;100.00;101322.42;1732212;82;20970;-81
2021/09/17 00:37:31;;;;;;;57.03;19.00;;;;;;;7.14;100.00;101317.05;1747530;81;21008;-83
2021/09/17 00:39:57;;;;;;;66.72;19.05;;;;;;;7.09;100.00;101320.41;1770686;81;21065;-84
2021/09/17 00:42:23;;;;;;;58.48;18.42;;;;;;;7.05;100.00;101313.83;1770334;81;21738;-84
2021/09/17 00:44:49;;;;;;;47.50;16.55;;;;;;;7.05;100.00;101304.45;1767796;80;21167;-84
2021/09/17 00:47:15;;;;;;;53.30;17.95;;;;;;;7.06;100.00;101308.79;1770439;81;21037;-84
2021/09/17 00:49:41;;;;;;;43.30;14.18;;;;;;;7.04;100.00;101304.16;1770316;79;21053;-84
2021/09/17 00:52:07;;;;;;;41.23;14.43;;;;;;;6.97;100.00;101302.03;1770490;81;20906;-84
2021/09/17 00:54:34;;;;;;;47.15;15.93;;;;;;;6.95;100.00;101306.81;1770424;81;21032;-85
2021/09/17 00:57:02;;;;;;;42.88;15.43;;;;;;;6.93;100.00;101304.33;1770394;81;21085;-84
2021/09/17 00:59:28;;;;;;;45.45;15.18;;;;;;;6.89;100.00;101305.00;1770410;81;21006;-81
2021/09/17 01:01:55;;;;;;;39.78;14.90;;;;;;;6.85;100.00;101304.59;1770512;81;20883;-84
2021/09/17 01:04:22;;;;;;;40.65;14.10;;;;;;;6.86;100.00;101300.08;1770487;81;20990;-84
2021/09/17 01:06:49;;;;;;;36.65;13.83;;;;;;;6.86;100.00;101302.23;1742457;81;21052;-84
2021/09/17 01:09:14;;;;;;;38.42;12.37;;;;;;;6.85;100.00;101301.91;1770196;79;21064;-84
2021/09/17 01:11:40;;;;;;;36.23;12.13;;;;;;;6.86;100.00;101303.58;1770126;81;20890;-84
2021/09/17 01:14:07;;;;;;;37.95;13.95;;;;;;;6.82;100.00;101297.84;1770527;81;20866;-84
2021/09/17 01:16:33;;;;;;;33.00;11.50;;;;;;;6.80;100.00;101297.75;1770353;81;21056;-84
2021/09/17 01:18:59;;;;;;;26.30;11.15;;;;;;;6.71;100.00;101293.17;1770513;81;20965;-85
2021/09/17 01:21:25;;;;;;;32.25;10.85;;;;;;;6.62;100.00;101289.12;1770405;81;21123;-83
2021/09/17 01:23:52;;;;;;;32.53;10.93;;;;;;;6.61;100.00;101288.80;1770311;81;20989;-84
2021/09/17 01:26:24;;;;;;;27.25;10.93;;;;;;;6.63;100.00;101288.08;1770359;81;21052;-84
2021/09/17 01:28:50;;;;;;;33.85;10.82;;;;;;;6.65;100.00;101283.33;1770515;81;21060;-84
2021/09/17 01:31:16;;;;;;;25.20;10.10;;;;;;;6.67;100.00;101282.58;1770450;81;21655;-85
2021/09/17 01:33:42;;;;;;;25.35;9.60;;;;;;;6.65;100.00;101277.98;1770377;81;21490;-85
2021/09/17 01:36:10;;;;;;;21.73;9.70;;;;;;;6.60;100.00;101285.83;1770387;81;20978;-85
2021/09/17 01:38:40;;;;;;;23.00;8.53;;;;;;;6.53;100.00;101276.51;1770359;79;21131;-85
2021/09/17 01:41:07;;;;;;;30.35;9.73;;;;;;;6.46;100.00;101272.22;1770441;81;21045;-84
2021/09/17 01:43:34;;;;;;;28.05;9.03;;;;;;;6.41;100.00;101274.72;1770395;81;21540;-85
2021/09/17 01:46:01;;;;;;;26.95;9.05;;;;;;;6.34;100.00;101272.09;1770419;79;21462;-85
2021/09/17 01:48:29;;;;;;;24.85;9.65;;;;;;;6.31;100.00;101271.99;1770270;81;21522;-85
2021/09/17 01:50:57;;;;;;;21.15;8.73;;;;;;;6.29;100.00;101267.88;1770372;81;20985;-85
2021/09/17 01:53:23;;;;;;;30.10;9.00;;;;;;;6.25;100.00;101268.02;1770377;81;21052;-85
2021/09/17 01:55:55;;;;;;;28.42;8.73;;;;;;;6.20;100.00;101263.30;1770430;81;21009;-85
2021/09/17 01:58:23;;;;;;;29.07;8.58;;;;;;;6.19;100.00;101258.99;1770651;80;21075;-87
2021/09/17 02:00:49;;;;;;;19.65;7.70;;;;;;;6.19;100.00;101260.85;1770286;81;20989;-86
2021/09/17 02:03:15;;;;;;;19.57;8.08;;;;;;;6.16;100.00;101258.61;1770484;80;21615;-85
2021/09/17 02:05:41;;;;;;;20.40;7.92;;;;;;;6.12;100.00;101258.22;1770267;81;20929;-85
2021/09/17 02:08:06;;;;;;;30.77;7.95;;;;;;;6.12;100.00;101259.03;1770734;80;20878;-85
2021/09/17 02:10:32;;;;;;;24.92;7.95;;;;;;;6.13;100.00;101258.52;1770106;79;21343;-86
2021/09/17 02:12:58;;;;;;;20.52;7.37;;;;;;;6.09;100.00;101259.46;1770415;81;21481;-86
2021/09/17 02:15:24;;;;;;;20.60;7.87;;;;;;;6.07;100.00;101254.83;1770435;80;20976;-84
2021/09/17 02:17:50;;;;;;;19.82;7.20;;;;;;;6.07;100.00;101249.48;1770402;80;20839;-85
2021/09/17 02:20:16;;;;;;;28.85;7.50;;;;;;;6.11;100.00;101253.88;1770314;79;20981;-84
2021/09/17 02:22:42;;;;;;;20.32;7.37;;;;;;;6.11;100.00;101254.70;1770563;80;21334;-85
2021/09/17 02:25:09;;;;;;;19.82;6.70;;;;;;;6.13;100.00;101253.16;1770442;81;20901;-85
2021/09/17 02:27:35;;;;;;;21.33;7.70;;;;;;;6.12;100.00;101248.33;1770471;81;21509;-85
2021/09/17 02:30:01;;;;;;;24.20;7.92;;;;;;;6.11;100.00;101251.20;1770553;81;20937;-82
2021/09/17 02:32:26;;;;;;;21.52;7.37;;;;;;;6.08;100.00;101251.63;1770584;81;20890;-84
2021/09/17 02:34:55;;;;;;;21.40;6.90;;;;;;;6.07;100.00;101250.00;1770406;80;21984;-84
2021/09/17 02:37:22;;;;;;;17.60;7.10;;;;;;;6.07;100.00;101256.17;1770453;81;21013;-84
2021/09/17 02:39:47;;;;;;;18.37;7.08;;;;;;;6.05;100.00;101246.19;1770585;81;21493;-84
2021/09/17 02:42:13;;;;;;;19.70;6.95;;;;;;;6.03;100.00;101244.27;1770576;80;20977;-84
2021/09/17 02:44:39;;;;;;;21.07;7.30;;;;;;;6.01;100.00;101236.96;1770645;81;20867;-84
2021/09/17 02:47:05;;;;;;;18.42;6.53;;;;;;;5.96;100.00;101232.76;1770538;80;21118;-84
2021/09/17 02:49:33;;;;;;;20.40;7.03;;;;;;;5.91;100.00;101236.06;1770303;80;20980;-83
2021/09/17 02:52:00;;;;;;;18.48;7.90;;;;;;;5.85;100.00;101215.52;1770358;81;21528;-84
2021/09/17 02:54:26;;;;;;;21.45;7.60;;;;;;;5.91;100.00;101232.05;1770307;79;21608;-84
2021/09/17 02:56:52;;;;;;;26.77;7.85;;;;;;;5.87;100.00;101232.67;1770686;81;21002;-84
2021/09/17 02:59:18;;;;;;;22.77;7.47;;;;;;;5.88;100.00;101235.15;1770520;81;21151;-84
2021/09/17 03:01:44;;;;;;;18.62;7.15;;;;;;;5.86;100.00;101233.19;1770498;79;21659;-84
2021/09/17 03:04:10;;;;;;;21.07;8.00;;;;;;;5.81;100.00;101237.53;1770459;80;20973;-84
2021/09/17 03:06:35;;;;;;;23.15;8.20;;;;;;;5.77;100.00;101234.47;1770735;81;20957;-84
2021/09/17 03:09:02;;;;;;;30.72;8.58;;;;;;;5.73;100.00;101230.56;1770571;81;20851;-84
2021/09/17 03:11:28;;;;;;;21.45;8.00;;;;;;;5.66;100.00;101229.78;1770152;79;21197;-84
2021/09/17 03:13:54;;;;;;;24.57;9.10;;;;;;;5.65;100.00;101226.81;1765651;81;21005;-85
2021/09/17 03:16:20;;;;;;;23.57;8.10;;;;;;;5.66;100.00;101228.44;1770542;80;20945;-83
2021/09/17 03:18:46;;;;;;;26.73;8.50;;;;;;;5.66;100.00;101226.58;1770537;81;20973;-84
2021/09/17 03:21:12;;;;;;;23.52;9.40;;;;;;;5.65;100.00;101228.15;1770559;80;20851;-84
2021/09/17 03:23:37;;;;;;;28.60;10.05;;;;;;;5.62;100.00;101228.58;1770088;80;21142;-84
2021/09/17 03:26:04;;;;;;;27.13;10.25;;;;;;;5.62;100.00;101231.25;1770458;81;21741;-84
2021/09/17 03:28:30;;;;;;;26.23;9.38;;;;;;;5.62;100.00;101233.92;1770501;81;21049;-84
2021/09/17 03:30:56;;;;;;;27.20;9.05;;;;;;;5.61;100.00;101226.91;1770494;81;21538;-85
2021/09/17 03:33:22;;;;;;;27.60;9.38;;;;;;;5.61;100.00;101226.39;1770599;80;20977;-84
2021/09/17 03:35:48;;;;;;;23.73;8.68;;;;;;;5.65;100.00;101230.82;1771005;81;21423;-84
2021/09/17 03:38:14;;;;;;;25.82;8.65;;;;;;;5.70;100.00;101229.65;1770531;80;21037;-84
2021/09/17 03:40:41;;;;;;;31.55;10.45;;;;;;;5.74;100.00;101234.08;1770621;81;21037;-84
2021/09/17 03:43:08;;;;;;;29.80;9.48;;;;;;;5.80;100.00;101232.70;1770572;81;21037;-85
2021/09/17 03:45:36;;;;;;;30.40;10.70;;;;;;;5.86;100.00;101232.38;1770227;81;20985;-84
2021/09/17 03:48:13;;;;;;;38.58;11.57;;;;;;;5.92;100.00;101227.52;1770483;81;21130;-84
2021/09/17 03:50:39;;;;;;;30.32;10.68;;;;;;;5.99;100.00;101230.17;1770472;81;21560;-84
2021/09/17 03:53:06;;;;;;;29.72;10.48;;;;;;;6.07;100.00;101234.77;1770549;81;21041;-85
2021/09/17 03:55:34;;;;;;;35.05;11.97;;;;;;;6.17;100.00;101232.95;1770455;79;21018;-85
2021/09/17 03:58:03;;;;;;;39.33;12.70;;;;;;;6.27;100.00;101241.88;1770188;81;21040;-84
2021/09/17 04:00:29;;;;;;;48.68;14.53;;;;;;;6.40;100.00;101244.98;1770526;81;21992;-85
2021/09/17 04:02:55;;;;;;;48.17;15.40;;;;;;;6.53;100.00;101246.21;1770312;81;20878;-84
2021/09/17 04:05:21;;;;;;;69.32;17.77;;;;;;;6.65;100.00;101249.01;1770277;81;21493;-84
2021/09/17 04:07:47;;;;;;;54.53;16.25;;;;;;;6.77;100.00;101246.77;1778273;80;20848;-82
2021/09/17 04:10:16;;;;;;;42.78;15.08;;;;;;;6.88;100.00;101243.06;1795917;78;21256;-81
2021/09/17 04:12:43;;;;;;;52.10;15.30;;;;;;;7.04;100.00;101243.86;1829398;78;21985;-84
2021/09/17 04:15:14;;;;;;;45.28;14.50;;;;;;;7.49;100.00;101247.11;1829458;78;21034;-86
2021/09/17 04:17:39;;;;;;;40.38;13.78;;;;;;;8.59;100.00;101232.69;1829080;78;20995;-86
2021/09/17 04:20:07;;;;;;;42.95;14.98;;;;;;;9.94;100.00;101232.18;1826102;78;21553;-83
2021/09/17 04:22:39;;;;;;;42.88;14.73;;;;;;;11.18;100.00;101222.93;1767489;79;21554;-86
2021/09/17 04:25:08;;;;;;;40.25;14.87;;;;;;;12.04;100.00;101219.19;1796858;79;21305;-86
2021/09/17 04:27:35;;;;;;;39.92;14.15;;;;;;;12.99;100.00;101213.24;1785095;78;21549;-86
2021/09/17 04:30:04;;;;;;;42.10;15.35;;;;;;;13.77;100.00;101214.22;1826199;78;21050;-80
2021/09/17 04:32:29;;;;;;;42.62;14.05;;;;;;;14.53;100.00;101212.77;1815833;78;21562;-82
2021/09/17 04:34:55;;;;;;;42.73;15.58;;;;;;;15.21;100.00;101217.84;1796613;79;21007;-85
2021/09/17 04:37:21;;;;;;;45.17;15.10;;;;;;;15.80;100.00;101213.03;1808116;78;21161;-83
2021/09/17 04:39:47;;;;;;;41.85;15.38;;;;;;;16.73;100.00;101215.37;1829560;78;20875;-83
2021/09/17 04:42:12;;;;;;;43.10;15.65;;;;;;;17.47;100.00;101202.92;1829691;78;21607;-83
2021/09/17 04:44:39;;;;;;;38.85;16.32;;;;;;;18.07;99.94;101207.34;1829806;78;20863;-86
2021/09/17 04:47:05;;;;;;;47.90;16.45;;;;;;;18.54;93.52;101197.33;1830091;78;21050;-87
2021/09/17 04:49:31;;;;;;;46.50;16.95;;;;;;;19.03;87.19;101198.70;1819533;78;21109;-87
2021/09/17 04:51:57;;;;;;;52.65;18.35;;;;;;;19.72;88.18;101204.73;1816949;78;20950;-88
2021/09/17 04:54:23;;;;;;;44.20;17.25;;;;;;;20.40;78.50;101200.16;1818966;78;21073;-87
2021/09/17 04:56:49;;;;;;;40.33;16.90;;;;;;;21.13;71.97;101196.66;1829798;78;20919;-88
2021/09/17 04:59:15;;;;;;;40.00;16.50;;;;;;;21.72;67.85;101199.92;1799576;78;20911;-87
2021/09/17 05:01:40;;;;;;;45.67;16.35;;;;;;;22.35;61.68;101193.58;1829687;78;20928;-89
2021/09/17 05:04:06;;;;;;;50.70;17.82;;;;;;;23.06;64.36;101196.42;1829982;78;21021;-89
2021/09/17 05:06:32;;;;;;;45.48;18.32;;;;;;;23.80;57.52;101192.34;1830021;78;21569;-90
2021/09/17 05:08:59;;;;;;;73.83;19.42;;;;;;;24.45;53.04;101195.55;1829839;78;21515;-89
2021/09/17 05:11:25;;;;;;;61.37;21.30;;;;;;;24.87;51.61;101198.17;1800671;78;21006;-88
2021/09/17 05:13:51;;;;;;;63.20;17.92;;;;;;;25.44;47.35;101194.55;1829747;78;21057;-89
2021/09/17 05:16:23;;;;;;;62.17;18.23;;;;;;;25.63;44.53;101189.82;1829677;78;20959;-89
2021/09/17 05:18:49;;;;;;;60.17;18.75;;;;;;;25.59;44.14;101192.48;1829747;78;21026;-90
2021/09/17 05:21:15;;;;;;;55.65;21.00;;;;;;;26.08;44.06;101196.30;1829697;78;20950;-88
2021/09/17 05:23:41;;;;;;;58.48;20.85;;;;;;;26.34;40.54;101184.80;1829521;78;20852;-88
2021/09/17 05:26:07;;;;;;;62.00;20.97;;;;;;;26.22;41.78;101192.56;1829697;78;21056;-89
2021/09/17 05:28:34;;;;;;;56.18;20.17;;;;;;;26.91;40.53;101185.77;1829652;78;20991;-89
2021/09/17 05:31:01;;;;;;;44.50;19.55;;;;;;;27.41;39.82;101186.17;1829741;78;21006;-89
2021/09/17 05:33:27;;;;;;;55.00;18.62;;;;;;;28.28;39.33;101186.88;1829716;78;21026;-89
2021/09/17 05:35:53;;;;;;;59.77;18.00;;;;;;;29.08;37.34;101188.55;1829731;78;20887;-90
2021/09/17 05:38:19;;;;;;;67.37;24.30;;;;;;;29.51;36.36;101187.84;1798323;78;21069;-87
2021/09/17 05:40:45;;;;;;;60.78;20.62;;;;;;;29.76;34.09;101187.60;1829617;78;20883;-89
2021/09/17 05:43:10;;;;;;;55.67;20.62;;;;;;;30.38;34.69;101193.34;1829700;78;20922;-89
2021/09/17 05:45:36;;;;;;;43.60;16.73;;;;;;;30.89;34.01;101187.13;1829793;78;20946;-88
2021/09/17 05:48:02;;;;;;;36.93;14.65;;;;;;;31.45;32.39;101190.14;1829800;78;20864;-90
2021/09/17 05:50:28;;;;;;;39.20;15.23;;;;;;;31.54;30.20;101182.23;1829613;78;21961;-87
2021/09/17 05:52:54;;;;;;;42.55;15.30;;;;;;;31.78;31.14;101184.95;1829555;78;20871;-86
2021/09/17 05:55:21;;;;;;;32.10;14.75;;;;;;;32.16;30.23;101174.97;1829658;78;20934;-88
2021/09/17 05:57:47;;;;;;;35.85;15.03;;;;;;;32.27;29.35;101177.20;1829390;78;21014;-89
2021/09/17 06:00:13;;;;;;;33.58;14.15;;;;;;;32.13;28.70;101175.16;1829738;78;22129;-85
2021/09/17 06:02:45;;;;;;;34.08;14.45;;;;;;;32.70;29.80;101179.47;1824586;78;21354;-89
2021/09/17 06:05:11;;;;;;;33.00;15.00;;;;;;;33.70;28.11;101184.98;1829756;78;20935;-87
2021/09/17 06:07:42;;;;;;;41.02;15.15;;;;;;;34.68;27.27;101172.13;1829705;78;20875;-88
2021/09/17 06:10:09;;;;;;;31.87;12.28;;;;;;;35.52;27.09;101172.95;1829752;78;21523;-87
2021/09/17 06:12:35;;;;;;;27.32;12.60;;;;;;;35.49;24.12;101175.36;1832313;78;21014;-89
2021/09/17 06:15:02;;;;;;;25.65;10.78;;;;;;;35.34;25.01;101179.55;1832858;78;21012;-86
2021/09/17 06:17:27;;;;;;;19.92;10.25;;;;;;;35.99;24.70;101175.39;1805889;78;20979;-86
2021/09/17 06:19:54;;;;;;;25.77;10.90;;;;;;;36.42;23.01;101179.64;1832598;78;21608;-89
2021/09/17 06:22:20;;;;;;;19.55;10.13;;;;;;;37.01;22.76;101172.11;1801932;78;21025;-89
2021/09/17 06:24:45;;;;;;;18.07;9.85;;;;;;;37.46;22.51;101176.66;1827365;78;20860;-87
2021/09/17 06:27:11;;;;;;;23.20;11.12;;;;;;;37.82;21.40;101171.73;1830920;78;21154;-88
2021/09/17 06:29:37;;;;;;;20.70;11.12;;;;;;;38.11;20.90;101177.56;1835410;78;20950;-88
2021/09/17 06:32:04;;;;;;;26.37;11.50;;;;;;;38.55;21.20;101173.17;1835480;78;20848;-89
2021/09/17 06:34:30;;;;;;;28.90;13.13;;;;;;;39.14;20.04;101169.88;1835302;78;21458;-85
2021/09/17 06:36:56;;;;;;;33.05;13.00;;;;;;;38.85;19.78;101178.45;1830531;78;20836;-90
2021/09/17 06:39:22;;;;;;;24.67;11.93;;;;;;;39.19;19.79;101174.36;1826817;78;21074;-88
2021/09/17 06:41:51;;;;;;;27.13;12.03;;;;;;;39.48;19.27;101167.34;1817362;79;20963;-90
2021/09/17 06:44:17;;;;;;;26.87;13.15;;;;;;;39.87;19.37;101160.39;1696644;84;21136;-89
2021/09/17 06:46:43;;;;;;;27.60;11.65;;;;;;;40.23;18.29;101159.31;1696647;84;21050;-89
2021/09/17 06:49:09;;;;;;;30.32;11.83;;;;;;;40.60;18.80;101158.48;1696677;84;21084;-90
2021/09/17 06:51:35;;;;;;;40.45;12.25;;;;;;;40.74;17.67;101154.42;1696961;84;21170;-89
2021/09/17 06:54:00;;;;;;;26.77;11.00;;;;;;;40.33;17.31;101161.80;1673246;84;20951;-89
2021/09/17 06:56:26;;;;;;;22.40;11.68;;;;;;;40.38;17.54;101156.97;1696786;84;21004;-89
2021/09/17 06:58:52;;;;;;;29.02;12.37;;;;;;;41.23;17.73;101155.95;1703578;84;20863;-88
2021/09/17 07:01:21;;;;;;;26.80;10.48;;;;;;;41.95;16.93;101154.11;1703966;84;21018;-90
2021/09/17 07:03:46;;;;;;;27.75;12.63;;;;;;;42.34;16.81;101149.71;1703464;84;21108;-87
2021/09/17 07:06:12;;;;;;;19.65;10.72;;;;;;;42.56;16.47;101145.97;1705268;84;21053;-87
2021/09/17 07:08:38;;;;;;;18.25;10.13;;;;;;;42.92;15.56;101140.20;1709387;84;20993;-87
2021/09/17 07:11:04;;;;;;;22.98;10.10;;;;;;;43.21;15.57;101139.14;1699920;84;20906;-91
2021/09/17 07:13:30;;;;;;;21.07;11.33;;;;;;;42.94;14.71;101137.70;1670161;86;21093;-86
2021/09/17 07:16:08;;;;;;;19.20;10.08;;;;;;;42.42;14.54;101138.25;1682777;84;22001;-90
2021/09/17 07:18:34;;;;;;;21.35;8.73;;;;;;;42.25;15.27;101128.41;1687177;85;21078;-91
2021/09/17 07:21:01;;;;;;;18.82;10.15;;;;;;;42.89;14.92;101127.78;1687333;85;21651;-90
2021/09/17 07:23:28;;;;;;;17.82;9.28;;;;;;;43.56;14.50;101126.00;1687121;85;21038;-89
2021/09/17 07:25:54;;;;;;;17.05;8.58;;;;;;;43.50;13.81;101122.98;1664212;85;21042;-90
2021/09/17 07:28:20;;;;;;;22.48;8.80;;;;;;;43.31;13.69;101121.47;1687332;85;21061;-91
2021/09/17 07:30:45;;;;;;;16.65;8.18;;;;;;;42.89;14.15;101122.11;1687057;85;20974;-89
2021/09/17 07:33:11;;;;;;;11.83;7.83;;;;;;;43.07;14.03;101119.89;1687306;85;20934;-89
2021/09/17 07:35:40;;;;;;;11.57;7.00;;;;;;;43.11;14.12;101124.77;1687415;85;20975;-90
2021/09/17 07:38:06;;;;;;;10.68;7.83;;;;;;;43.43;13.76;101119.07;1687062;85;21066;-92
2021/09/17 07:40:33;;;;;;;12.65;7.40;;;;;;;43.46;14.11;101113.86;1714827;80;21905;-89
2021/09/17 07:42:59;;;;;;;13.83;8.28;;;;;;;43.97;13.42;101108.05;1793993;80;21460;-90
2021/09/17 07:45:26;;;;;;;15.32;8.30;;;;;;;44.52;14.00;101105.55;1793624;78;21043;-88
2021/09/17 07:47:54;;;;;;;11.28;8.03;;;;;;;44.62;13.10;101103.55;1794288;78;20976;-88
2021/09/17 07:50:20;;;;;;;10.18;7.92;;;;;;;44.83;12.64;101105.95;1733352;80;21051;-87
2021/09/17 07:52:46;;;;;;;11.40;8.18;;;;;;;45.17;12.98;101098.72;1757205;80;21116;-89
2021/09/17 07:55:12;;;;;;;15.38;8.05;;;;;;;45.11;12.02;101098.58;1787744;80;20967;-87
2021/09/17 07:57:39;;;;;;;11.90;7.85;;;;;;;44.57;12.20;101106.30;1787756;80;21018;-89
2021/09/17 08:00:09;;;;;;;9.58;7.78;;;;;;;44.76;12.77;101102.05;1787554;80;20992;-88
2021/09/17 08:02:35;;;;;;;8.90;6.50;;;;;;;45.25;11.82;101095.63;1787661;80;21011;-87
2021/09/17 08:05:00;;;;;;;12.33;8.33;;;;;;;45.56;11.70;101092.28;1798492;78;21149;-88
2021/09/17 08:07:36;;;;;;;12.35;7.62;;;;;;;45.75;12.31;101088.59;1824465;78;21002;-87
2021/09/17 08:10:04;;;;;;;9.00;8.20;;;;;;;46.09;11.67;101086.24;1789031;79;21014;-90
2021/09/17 08:12:30;;;;;;;9.45;6.85;;;;;;;46.08;11.93;101091.81;1793128;80;21029;-86
2021/09/17 08:14:56;;;;;;;9.50;7.50;;;;;;;46.35;11.29;101087.14;1794017;79;20982;-87
2021/09/17 08:17:22;;;;;;;10.15;6.75;;;;;;;46.42;11.41;101078.82;1794124;80;21172;-88
2021/09/17 08:19:49;;;;;;;13.10;7.87;;;;;;;46.41;11.46;101080.09;1794018;80;20975;-87
2021/09/17 08:22:15;;;;;;;11.60;7.58;;;;;;;46.67;11.71;101075.89;1794131;80;21541;-87
2021/09/17 08:24:41;;;;;;;10.95;7.65;;;;;;;46.92;11.06;101074.97;1794092;79;20931;-91
2021/09/17 08:27:07;;;;;;;9.68;8.15;;;;;;;46.57;10.65;101072.39;1793961;80;20970;-85
2021/09/17 08:29:33;;;;;;;8.03;7.22;;;;;;;46.10;10.75;101075.78;1794105;79;21652;-86
2021/09/17 08:32:06;;;;;;;13.78;7.80;;;;;;;44.45;11.33;101081.12;1793976;79;21478;-87
2021/09/17 08:34:33;;;;;;;7.35;6.60;;;;;;;43.99;11.67;101068.58;1731731;82;21119;-86
2021/09/17 08:36:58;;;;;;;10.35;6.00;;;;;;;44.48;11.65;101073.03;1731970;82;21089;-87
2021/09/17 08:39:24;;;;;;;10.93;6.35;;;;;;;44.82;11.79;101064.55;1731700;82;20978;-85
2021/09/17 08:41:50;;;;;;;7.08;6.10;;;;;;;44.43;11.51;101058.06;1712882;82;22382;-87
2021/09/17 08:44:16;;;;;;;7.25;5.87;;;;;;;44.79;11.70;101057.63;1727707;82;20894;-88
2021/09/17 08:46:43;;;;;;;9.30;6.12;;;;;;;44.42;11.52;101060.13;1714224;83;21002;-87
2021/09/17 08:49:10;;;;;;;9.73;5.78;;;;;;;44.25;11.58;101061.02;1711846;83;21018;-87
2021/09/17 08:51:36;;;;;;;8.93;6.08;;;;;;;43.81;11.38;101052.39;1711860;83;21575;-86
2021/09/17 08:54:05;;;;;;;10.45;5.30;;;;;;;42.96;11.86;101053.70;1712053;83;21069;-87
2021/09/17 08:56:32;;;;;;;7.28;5.00;;;;;;;42.17;11.84;101061.95;1711947;83;21030;-89
2021/09/17 08:58:59;;;;;;;5.60;4.03;;;;;;;41.52;12.76;101051.00;1721746;82;20944;-84
2021/09/17 09:01:32;;;;;;;7.58;4.42;;;;;;;41.53;12.41;101059.05;1738966;82;21070;-84
2021/09/17 09:04:02;;;;;;;6.62;4.10;;;;;;;40.29;12.71;101047.33;1736992;82;21001;-87
2021/09/17 09:06:37;;;;;;;7.08;4.20;;;;;;;40.15;13.50;101046.55;1785150;80;21050;-87
2021/09/17 09:09:49;;;;;;;7.65;4.10;;;;;;;40.52;13.17;101049.75;1665963;85;21093;-86
2021/09/17 09:12:18;;;;;;;5.67;3.10;;;;;;;40.80;13.46;101045.16;1660401;85;21100;-85
2021/09/17 09:14:44;;;;;;;7.58;3.22;;;;;;;41.09;17.03;101037.05;1659442;86;21077;-83
2021/09/17 09:17:10;;;;;;;7.72;3.62;;;;;;;40.90;19.58;101036.12;1657660;86;21668;-87
2021/09/17 09:19:37;;;;;;;8.93;3.35;;;;;;;40.76;15.22;101030.35;1657340;86;21237;-90
2021/09/17 09:22:09;;;;;;;7.55;2.90;;;;;;;40.55;15.17;101038.16;1637448;86;21114;-82
2021/09/17 09:24:43;;;;;;;11.50;3.27;;;;;;;40.69;14.17;101028.42;1663485;86;21047;-85
2021/09/17 09:27:20;;;;;;;8.70;3.20;;;;;;;39.66;13.91;101024.94;1629155;87;21567;-81
2021/09/17 09:29:52;;;;;;;5.47;2.95;;;;;;;38.53;14.73;101026.32;1609855;88;21178;-87
2021/09/17 09:32:31;;;;;;;9.15;3.42;;;;;;;38.35;15.64;101023.32;1607473;89;21080;-86
2021/09/17 09:35:06;;;;;;;6.40;3.30;;;;;;;38.30;15.71;101023.87;1594868;89;21590;-86
2021/09/17 09:37:37;;;;;;;10.25;2.83;;;;;;;37.83;16.55;101023.38;1604905;89;21017;-87
2021/09/17 09:40:09;;;;;;;5.85;3.15;;;;;;;37.45;16.21;101018.22;1604854;89;21104;-89
2021/09/17 09:42:45;;;;;;;8.18;3.08;;;;;;;37.21;16.07;101022.54;1604998;89;21064;-88
2021/09/17 09:45:19;;;;;;;5.25;2.77;;;;;;;36.64;16.08;101014.41;1604837;89;21519;-86
2021/09/17 09:47:52;;;;;;;7.85;3.10;;;;;;;35.94;16.21;101005.52;1694927;84;21481;-87
2021/09/17 09:50:25;;;;;;;9.35;3.27;;;;;;;35.48;16.71;101010.37;1694632;84;21544;-86
2021/09/17 09:52:55;;;;;;;9.98;3.40;;;;;;;35.32;16.50;101005.98;1635242;87;21087;-87
2021/09/17 09:55:21;;;;;;;9.05;2.80;;;;;;;34.82;17.49;101003.94;1638462;87;21096;-87
2021/09/17 09:57:48;;;;;;;8.83;2.90;;;;;;;34.82;17.55;101003.94;1647623;87;21933;-88
2021/09/17 10:00:16;;;;;;;10.93;2.60;;;;;;;34.49;17.71;100999.86;1647471;87;21072;-85
2021/09/17 10:02:44;;;;;;;8.98;3.00;;;;;;;34.32;17.84;100996.62;1647450;87;21121;-85
2021/09/17 10:05:15;;;;;;;13.10;2.72;;;;;;;33.82;18.21;101001.18;1646786;87;21072;-86
2021/09/17 10:07:43;;;;;;;11.65;3.00;;;;;;;33.37;18.37;101000.41;1643813;87;21560;-86
2021/09/17 10:10:12;;;;;;;8.25;2.37;;;;;;;32.83;18.32;100996.19;1642611;87;21265;-84
2021/09/17 10:12:40;;;;;;;5.78;2.90;;;;;;;32.47;18.52;100998.45;1623450;87;21035;-86
2021/09/17 10:15:10;;;;;;;8.43;2.65;;;;;;;32.14;18.63;100994.06;1601158;88;21069;-86
2021/09/17 10:17:38;;;;;;;8.73;2.30;;;;;;;31.70;19.05;100990.20;1628568;88;21146;-87
2021/09/17 10:20:08;;;;;;;5.90;2.15;;;;;;;31.38;19.64;100979.16;1628764;87;21069;-87
2021/09/17 10:22:43;;;;;;;5.47;2.58;;;;;;;31.10;20.43;100979.84;1628903;88;21177;-87
2021/09/17 10:25:24;;;;;;;7.87;2.70;;;;;;;30.71;20.51;100974.84;1638655;87;21517;-87
2021/09/17 10:28:14;;;;;;;5.25;2.27;;;;;;;30.41;21.13;100972.84;1638862;87;21553;-86
2021/09/17 10:30:42;;;;;;;8.05;2.90;;;;;;;29.99;21.65;100974.06;1639012;87;21053;-86
2021/09/17 10:33:26;;;;;;;7.72;2.27;;;;;;;29.73;21.37;100974.41;1639080;87;21025;-84
2021/09/17 10:35:53;;;;;;;9.00;3.05;;;;;;;29.52;21.65;100972.77;1639251;87;21444;-87
2021/09/17 10:38:22;;;;;;;13.15;2.50;;;;;;;28.46;21.66;100974.53;1638965;87;21073;-87
2021/09/17 10:41:02;;;;;;;8.95;2.35;;;;;;;28.07;22.63;100962.20;1636035;87;21569;-85
2021/09/17 10:43:46;;;;;;;6.65;2.58;;;;;;;28.11;23.74;100965.61;1640072;87;21017;-87
2021/09/17 10:46:32;;;;;;;8.90;2.50;;;;;;;28.18;23.63;100954.63;1638974;87;21162;-84
2021/09/17 10:48:59;;;;;;;13.93;2.65;;;;;;;28.35;23.02;100949.95;1638878;87;22252;-84
2021/09/17 10:51:39;;;;;;;10.38;2.75;;;;;;;28.47;23.21;100941.48;1634203;87;21529;-85
2021/09/17 10:54:14;;;;;;;6.80;2.70;;;;;;;28.47;24.08;100942.88;1600074;87;21104;-85
2021/09/17 10:57:07;;;;;;;6.28;2.65;;;;;;;28.65;23.19;100943.13;1556698;91;21037;-86
2021/09/17 10:59:42;;;;;;;11.78;3.25;;;;;;;28.42;23.19;100927.94;1561772;91;21089;-86
2021/09/17 11:02:09;;;;;;;9.65;3.00;;;;;;;28.53;22.84;100927.52;1562335;91;21116;-88
2021/09/17 11:04:39;;;;;;;10.28;2.80;;;;;;;28.66;23.68;100923.91;1562176;91;21099;-83
2021/09/17 11:07:27;;;;;;;7.85;2.95;;;;;;;28.75;22.99;100921.66;1562732;91;21050;-82
2021/09/17 11:09:56;;;;;;;14.68;3.00;;;;;;;28.85;23.06;100913.84;1562397;91;21143;-85
2021/09/17 11:12:33;;;;;;;9.40;2.75;;;;;;;29.08;23.43;100909.61;1558310;91;21597;-85
2021/09/17 11:15:18;;;;;;;11.73;2.98;;;;;;;29.06;22.51;100906.41;1611819;88;21277;-85
2021/09/17 11:17:56;;;;;;;14.58;3.25;;;;;;;29.01;23.47;100906.13;1602185;88;21029;-86